createdAt,value
2018-07-08T00:01:32.151Z,11.70
2018-07-08T00:04:00.615Z,11.70
2018-07-08T00:06:28.990Z,11.80
2018-07-08T00:08:57.407Z,11.80
2018-07-08T00:11:25.820Z,11.70
2018-07-08T00:13:54.246Z,11.70
2018-07-08T00:16:22.693Z,11.60
2018-07-08T00:18:51.436Z,11.50
2018-07-08T00:21:19.878Z,11.30
2018-07-08T00:23:48.360Z,11.20
2018-07-08T00:26:16.784Z,11.20
2018-07-08T00:28:45.183Z,11.10
2018-07-08T00:31:13.603Z,11.10
2018-07-08T00:33:42.022Z,11.10
2018-07-08T00:36:10.450Z,11.20
2018-07-08T00:38:38.906Z,11.20
2018-07-08T00:41:07.318Z,11.30
2018-07-08T00:43:35.830Z,11.30
2018-07-08T00:46:04.208Z,11.20
2018-07-08T00:48:32.655Z,11.20
2018-07-08T00:51:01.058Z,11.10
2018-07-08T00:53:29.482Z,11.10
2018-07-08T00:55:57.887Z,11.00
2018-07-08T00:58:26.275Z,10.90
2018-07-08T01:00:54.689Z,10.80
2018-07-08T01:03:23.102Z,10.80
2018-07-08T01:05:51.493Z,10.90
2018-07-08T01:08:19.861Z,10.80
2018-07-08T01:10:48.289Z,10.80
2018-07-08T01:13:16.669Z,10.70
2018-07-08T01:18:13.206Z,10.50
2018-07-08T01:20:41.658Z,10.40
2018-07-08T01:23:10.338Z,10.40
2018-07-08T01:25:50.248Z,10.30
2018-07-08T01:28:18.942Z,10.40
2018-07-08T01:30:47.473Z,10.40
2018-07-08T01:33:15.884Z,10.40
2018-07-08T01:35:44.288Z,10.40
2018-07-08T01:38:12.638Z,10.40
2018-07-08T01:40:41.053Z,10.30
2018-07-08T01:43:09.528Z,10.30
2018-07-08T01:45:38.038Z,10.30
2018-07-08T01:48:06.466Z,10.20
2018-07-08T01:50:34.887Z,10.30
2018-07-08T01:53:03.270Z,10.30
2018-07-08T01:55:31.982Z,10.30
2018-07-08T01:58:00.531Z,10.30
2018-07-08T02:00:28.965Z,10.20
2018-07-08T02:02:57.437Z,10.30
2018-07-08T02:05:25.857Z,10.20
2018-07-08T02:07:54.662Z,10.20
2018-07-08T02:10:23.147Z,10.20
2018-07-08T02:12:51.591Z,10.20
2018-07-08T02:15:20.023Z,10.30
2018-07-08T02:17:48.476Z,10.20
2018-07-08T02:20:16.966Z,10.20
2018-07-08T02:22:45.962Z,10.10
2018-07-08T02:25:14.360Z,10.10
2018-07-08T02:27:42.870Z,10.10
2018-07-08T02:30:11.264Z,10.00
2018-07-08T02:32:39.956Z,9.90
2018-07-08T02:35:08.388Z,9.70
2018-07-08T02:37:36.811Z,9.70
2018-07-08T02:40:05.526Z,9.70
2018-07-08T02:42:33.976Z,9.70
2018-07-08T02:45:02.434Z,9.60
2018-07-08T02:47:30.832Z,9.50
2018-07-08T02:49:59.190Z,9.50
2018-07-08T02:52:27.567Z,9.60
2018-07-08T02:54:55.955Z,9.60
2018-07-08T02:57:24.365Z,9.60
2018-07-08T02:59:52.806Z,9.70
2018-07-08T03:02:21.311Z,9.70
2018-07-08T03:04:49.711Z,9.80
2018-07-08T03:07:18.106Z,9.70
2018-07-08T03:09:46.458Z,9.60
2018-07-08T03:12:14.880Z,9.60
2018-07-08T03:14:43.246Z,9.60
2018-07-08T03:17:11.626Z,9.60
2018-07-08T03:19:40.015Z,9.50
2018-07-08T03:22:08.405Z,9.60
2018-07-08T03:24:36.795Z,9.60
2018-07-08T03:27:05.249Z,9.70
2018-07-08T03:29:33.617Z,9.80
2018-07-08T03:32:02.068Z,9.90
2018-07-08T03:34:30.453Z,9.80
2018-07-08T03:36:58.865Z,9.80
2018-07-08T03:39:27.232Z,9.80
2018-07-08T03:41:55.634Z,9.90
2018-07-08T03:46:52.096Z,9.90
2018-07-08T03:49:20.482Z,10.00
2018-07-08T03:53:18.119Z,10.00
2018-07-08T03:58:14.680Z,10.00
2018-07-08T04:00:43.049Z,10.00
2018-07-08T04:03:11.516Z,10.00
2018-07-08T04:05:39.910Z,10.00
2018-07-08T04:08:08.332Z,10.00
2018-07-08T04:10:36.715Z,10.00
2018-07-08T04:13:05.163Z,10.10
2018-07-08T04:15:33.573Z,10.10
2018-07-08T04:18:09.507Z,10.10
2018-07-08T04:20:39.142Z,10.10
2018-07-08T04:23:07.891Z,10.20
2018-07-08T04:25:36.285Z,10.30
2018-07-08T04:28:05.065Z,10.50
2018-07-08T04:30:33.502Z,10.60
2018-07-08T04:33:02.210Z,10.60
2018-07-08T04:35:30.692Z,10.70
2018-07-08T04:37:59.824Z,10.80
2018-07-08T04:40:28.340Z,11.00
2018-07-08T04:42:56.762Z,11.20
2018-07-08T04:45:25.202Z,11.40
2018-07-08T04:47:53.663Z,11.60
2018-07-08T04:50:22.053Z,11.80
2018-07-08T04:52:50.475Z,11.90
2018-07-08T04:55:18.833Z,12.00
2018-07-08T04:57:47.255Z,12.10
2018-07-08T05:00:15.646Z,12.20
2018-07-08T05:02:44.085Z,12.30
2018-07-08T05:05:12.554Z,12.50
2018-07-08T05:07:40.993Z,12.80
2018-07-08T05:10:09.415Z,13.10
2018-07-08T05:12:37.832Z,13.40
2018-07-08T05:15:06.328Z,13.70
2018-07-08T05:17:34.720Z,14.00
2018-07-08T05:20:03.198Z,14.20
2018-07-08T05:22:31.572Z,14.50
2018-07-08T05:24:59.991Z,14.90
2018-07-08T05:27:28.455Z,15.30
2018-07-08T05:29:56.992Z,15.70
2018-07-08T05:32:25.401Z,16.10
2018-07-08T05:34:53.839Z,16.30
2018-07-08T05:37:22.246Z,16.80
2018-07-08T05:39:57.106Z,17.40
2018-07-08T05:42:25.575Z,17.70
2018-07-08T05:44:54.103Z,18.00
2018-07-08T05:47:22.491Z,18.10
2018-07-08T05:49:50.940Z,18.60
2018-07-08T05:54:47.616Z,19.60
2018-07-08T05:57:16.014Z,19.70
2018-07-08T05:59:44.425Z,20.40
2018-07-08T06:02:13.373Z,21.20
2018-07-08T06:04:41.852Z,21.20
2018-07-08T06:07:10.463Z,21.00
2018-07-08T06:09:38.846Z,21.20
2018-07-08T06:12:07.629Z,21.60
2018-07-08T06:14:36.082Z,21.70
2018-07-08T06:17:04.588Z,22.20
2018-07-08T06:19:32.995Z,22.90
2018-07-08T06:22:01.445Z,23.30
2018-07-08T06:24:29.889Z,23.10
2018-07-08T06:26:58.372Z,23.40
2018-07-08T06:29:26.944Z,25.10
2018-07-08T06:31:55.368Z,25.90
2018-07-08T06:34:23.808Z,26.90
2018-07-08T06:36:52.216Z,27.40
2018-07-08T06:39:20.638Z,26.70
2018-07-08T06:41:49.015Z,26.70
2018-07-08T06:44:17.408Z,27.00
2018-07-08T06:46:45.806Z,27.70
2018-07-08T06:49:14.211Z,28.00
2018-07-08T06:51:42.604Z,28.10
2018-07-08T06:54:11.021Z,28.30
2018-07-08T06:56:39.395Z,24.50
2018-07-08T06:59:07.766Z,24.30
2018-07-08T07:01:36.156Z,24.60
2018-07-08T07:04:04.608Z,25.70
2018-07-08T07:06:33.010Z,27.30
2018-07-08T07:09:01.464Z,27.20
2018-07-08T07:11:29.888Z,26.80
2018-07-08T07:13:58.296Z,28.40
2018-07-08T07:16:26.713Z,29.30
2018-07-08T07:18:55.105Z,29.30
2018-07-08T07:21:23.572Z,28.20
2018-07-08T07:23:51.910Z,28.70
2018-07-08T07:26:20.274Z,29.40
2018-07-08T07:28:48.667Z,29.50
2018-07-08T07:31:17.084Z,28.50
2018-07-08T07:33:45.455Z,28.90
2018-07-08T07:36:13.942Z,29.10
2018-07-08T07:38:42.328Z,28.10
2018-07-08T07:41:10.733Z,29.30
2018-07-08T07:43:39.119Z,29.50
2018-07-08T07:46:07.622Z,29.60
2018-07-08T07:48:36.182Z,30.00
2018-07-08T07:51:04.550Z,28.70
2018-07-08T07:53:32.929Z,29.60
2018-07-08T07:56:01.358Z,29.80
2018-07-08T07:58:29.791Z,29.80
2018-07-08T08:00:58.272Z,30.60
2018-07-08T08:03:26.719Z,30.80
2018-07-08T08:05:55.157Z,30.80
2018-07-08T08:08:23.608Z,30.40
2018-07-08T08:10:51.993Z,30.40
2018-07-08T08:13:20.391Z,29.70
2018-07-08T08:15:48.845Z,29.10
2018-07-08T08:18:17.217Z,28.90
2018-07-08T08:20:45.621Z,29.00
2018-07-08T08:23:14.001Z,28.40
2018-07-08T08:25:42.390Z,29.00
2018-07-08T08:28:10.753Z,29.10
2018-07-08T08:30:39.295Z,28.50
2018-07-08T08:33:07.794Z,29.00
2018-07-08T08:35:36.203Z,28.20
2018-07-08T08:38:04.872Z,28.30
2018-07-08T08:43:01.522Z,27.70
2018-07-08T08:45:30.283Z,28.70
2018-07-08T08:47:58.681Z,28.40
2018-07-08T08:50:27.094Z,28.70
2018-07-08T08:52:55.484Z,29.20
2018-07-08T08:55:23.880Z,29.40
2018-07-08T08:57:52.298Z,29.80
2018-07-08T09:00:21.112Z,29.00
2018-07-08T09:02:49.512Z,29.00
2018-07-08T09:05:17.886Z,29.00
2018-07-08T09:07:46.418Z,29.30
2018-07-08T09:10:14.838Z,29.30
2018-07-08T09:12:43.243Z,29.30
2018-07-08T09:15:11.656Z,28.80
2018-07-08T09:17:40.102Z,29.00
2018-07-08T09:20:08.542Z,29.40
2018-07-08T09:22:36.940Z,29.10
2018-07-08T09:25:05.827Z,27.20
2018-07-08T09:27:34.302Z,25.60
2018-07-08T09:30:02.772Z,25.00
2018-07-08T09:32:31.241Z,24.00
2018-07-08T09:34:59.690Z,23.50
2018-07-08T09:37:28.098Z,23.00
2018-07-08T09:39:56.530Z,22.90
2018-07-08T09:42:25.004Z,22.50
2018-07-08T09:44:53.589Z,22.30
2018-07-08T09:47:22.011Z,22.00
2018-07-08T09:49:50.462Z,21.30
2018-07-08T09:52:18.870Z,21.10
2018-07-08T09:54:47.310Z,21.10
2018-07-08T09:57:15.825Z,21.10
2018-07-08T09:59:44.304Z,21.20
2018-07-08T10:02:12.788Z,21.20
2018-07-08T10:04:41.277Z,21.10
2018-07-08T10:07:09.717Z,21.20
2018-07-08T10:09:38.126Z,21.10
2018-07-08T10:14:34.671Z,20.90
2018-07-08T10:17:03.080Z,20.90
2018-07-08T10:19:31.524Z,21.00
2018-07-08T10:21:59.965Z,21.00
2018-07-08T10:24:28.351Z,20.80
2018-07-08T10:27:22.190Z,20.80
2018-07-08T10:29:50.639Z,20.90
2018-07-08T10:32:19.132Z,20.90
2018-07-08T10:34:47.566Z,21.00
2018-07-08T10:37:16.015Z,21.20
2018-07-08T10:39:44.490Z,20.90
2018-07-08T10:42:12.975Z,21.10
2018-07-08T10:44:41.428Z,21.10
2018-07-08T10:47:09.822Z,21.00
2018-07-08T10:49:38.256Z,20.90
2018-07-08T10:52:06.760Z,21.00
2018-07-08T10:54:35.134Z,21.10
2018-07-08T10:59:32.273Z,21.30
2018-07-08T11:02:00.688Z,21.50
2018-07-08T11:04:29.104Z,21.40
2018-07-08T11:06:57.578Z,21.50
2018-07-08T11:09:26.043Z,21.60
2018-07-08T11:11:54.944Z,21.60
2018-07-08T11:14:23.367Z,21.40
2018-07-08T11:16:51.794Z,21.20
2018-07-08T11:19:20.209Z,21.30
2018-07-08T11:21:48.635Z,21.30
2018-07-08T11:24:17.040Z,21.30
2018-07-08T11:26:45.501Z,21.50
2018-07-08T11:29:13.896Z,21.50
2018-07-08T11:31:42.286Z,21.50
2018-07-08T11:34:10.717Z,21.70
2018-07-08T11:36:39.101Z,21.80
2018-07-08T11:41:35.651Z,22.00
2018-07-08T11:44:04.281Z,21.90
2018-07-08T11:46:32.745Z,21.90
2018-07-08T11:49:01.173Z,22.00
2018-07-08T11:51:30.008Z,22.30
2018-07-08T11:53:58.475Z,22.70
2018-07-08T11:56:26.870Z,22.60
2018-07-08T11:58:55.328Z,22.80
2018-07-08T12:01:23.768Z,23.00
2018-07-08T12:03:52.240Z,23.10
2018-07-08T12:06:20.638Z,22.90
2018-07-08T12:08:49.122Z,23.10
2018-07-08T12:11:17.535Z,23.10
2018-07-08T12:13:46.029Z,23.30
2018-07-08T12:16:14.452Z,23.40
2018-07-08T12:18:42.868Z,23.10
2018-07-08T12:21:11.291Z,23.00
2018-07-08T12:23:40.566Z,23.00
2018-07-08T12:26:09.012Z,23.00
2018-07-08T12:28:37.475Z,22.90
2018-07-08T12:31:05.902Z,22.90
2018-07-08T12:33:34.286Z,22.80
2018-07-08T12:36:02.657Z,22.80
2018-07-08T12:38:31.147Z,22.80
2018-07-08T12:40:59.557Z,22.70
2018-07-08T12:43:28.023Z,22.70
2018-07-08T12:45:56.417Z,22.80
2018-07-08T12:48:24.824Z,22.70
2018-07-08T12:50:53.256Z,22.40
2018-07-08T12:53:21.684Z,22.50
2018-07-08T12:55:50.112Z,22.70
2018-07-08T12:58:18.519Z,22.90
2018-07-08T13:00:46.926Z,23.20
2018-07-08T13:03:15.343Z,22.80
2018-07-08T13:05:43.773Z,22.90
2018-07-08T13:08:12.318Z,23.00
2018-07-08T13:10:40.704Z,22.90
2018-07-08T13:13:09.103Z,23.20
2018-07-08T13:15:37.480Z,23.20
2018-07-08T13:18:05.878Z,23.20
2018-07-08T13:20:34.327Z,23.00
2018-07-08T13:23:02.802Z,22.70
2018-07-08T13:25:31.250Z,22.70
2018-07-08T13:27:59.634Z,22.80
2018-07-08T13:30:28.033Z,23.00
2018-07-08T13:32:56.626Z,22.70
2018-07-08T13:35:25.126Z,22.80
2018-07-08T13:37:53.559Z,22.90
2018-07-08T13:40:22.100Z,22.80
2018-07-08T13:42:50.574Z,23.10
2018-07-08T13:45:19.033Z,23.40
2018-07-08T13:47:47.461Z,23.40
2018-07-08T13:50:15.860Z,23.20
2018-07-08T13:52:44.302Z,23.10
2018-07-08T13:55:12.768Z,23.10
2018-07-08T13:57:41.223Z,23.10
2018-07-08T14:00:09.661Z,23.10
2018-07-08T14:02:38.042Z,23.20
2018-07-08T14:05:06.486Z,23.10
2018-07-08T14:07:34.902Z,23.00
2018-07-08T14:10:03.367Z,22.70
2018-07-08T14:12:31.818Z,22.70
2018-07-08T14:15:00.212Z,22.80
2018-07-08T14:19:56.724Z,23.00
2018-07-08T14:22:25.341Z,23.00
2018-07-08T14:24:53.818Z,22.80
2018-07-08T14:27:22.370Z,22.80
2018-07-08T14:29:50.834Z,23.00
2018-07-08T14:33:22.401Z,22.90
2018-07-08T14:35:50.887Z,22.80
2018-07-08T14:38:19.356Z,22.60
2018-07-08T14:40:47.851Z,22.70
2018-07-08T14:43:16.255Z,23.10
2018-07-08T14:45:44.710Z,23.10
2018-07-08T14:48:13.179Z,23.20
2018-07-08T14:50:41.578Z,23.20
2018-07-08T14:53:10.298Z,23.20
2018-07-08T14:55:38.748Z,23.00
2018-07-08T14:58:07.170Z,22.90
2018-07-08T15:00:35.629Z,22.80
2018-07-08T15:03:04.074Z,22.70
2018-07-08T15:05:32.490Z,22.60
2018-07-08T15:08:00.874Z,22.60
2018-07-08T15:10:29.327Z,22.40
2018-07-08T15:12:57.691Z,22.10
2018-07-08T15:15:26.173Z,22.00
2018-07-08T15:17:54.743Z,22.00
2018-07-08T15:20:23.203Z,22.00
2018-07-08T15:22:51.680Z,22.00
2018-07-08T15:25:20.132Z,22.00
2018-07-08T15:27:48.502Z,22.00
2018-07-08T15:30:16.875Z,22.20
2018-07-08T15:32:45.394Z,22.30
2018-07-08T15:35:13.991Z,22.40
2018-07-08T15:37:42.420Z,22.60
2018-07-08T15:40:10.866Z,22.70
2018-07-08T15:42:39.398Z,22.60
2018-07-08T15:47:36.467Z,22.60
2018-07-08T15:50:05.088Z,22.50
2018-07-08T15:52:33.744Z,22.40
2018-07-08T15:55:02.099Z,22.40
2018-07-08T15:57:30.652Z,22.30
2018-07-08T15:59:59.228Z,22.20
2018-07-08T16:02:27.690Z,22.00
2018-07-08T16:04:56.341Z,21.90
2018-07-08T16:07:24.705Z,21.80
2018-07-08T16:09:53.203Z,21.80
2018-07-08T16:12:21.575Z,21.90
2018-07-08T16:14:49.976Z,21.90
2018-07-08T16:17:18.379Z,22.10
2018-07-08T16:19:46.796Z,22.20
2018-07-08T16:22:15.248Z,22.00
2018-07-08T16:24:43.707Z,22.00
2018-07-08T16:27:12.104Z,22.00
2018-07-08T16:29:40.462Z,22.00
2018-07-08T16:32:08.895Z,21.90
2018-07-08T16:34:37.616Z,22.00
2018-07-08T16:37:06.171Z,22.00
2018-07-08T16:39:34.533Z,21.90
2018-07-08T16:42:02.896Z,21.70
2018-07-08T16:44:31.284Z,21.60
2018-07-08T16:46:59.736Z,21.50
2018-07-08T16:49:28.089Z,21.60
2018-07-08T16:51:56.504Z,21.80
2018-07-08T16:54:24.844Z,21.80
2018-07-08T16:56:53.316Z,21.80
2018-07-08T16:59:27.064Z,21.90
2018-07-08T17:01:55.484Z,21.90
2018-07-08T17:04:23.845Z,22.00
2018-07-08T17:06:52.263Z,22.10
2018-07-08T17:09:20.650Z,22.00
2018-07-08T17:11:49.038Z,21.90
2018-07-08T17:14:17.414Z,21.90
2018-07-08T17:16:45.762Z,21.90
2018-07-08T17:19:14.127Z,22.00
2018-07-08T17:21:42.608Z,22.00
2018-07-08T17:24:10.968Z,22.00
2018-07-08T17:26:39.381Z,22.10
2018-07-08T17:31:35.822Z,22.20
2018-07-08T17:34:04.166Z,22.20
2018-07-08T17:36:32.536Z,22.20
2018-07-08T17:39:00.940Z,22.20
2018-07-08T17:41:32.282Z,22.10
2018-07-08T17:44:00.646Z,22.10
2018-07-08T17:46:29.205Z,22.00
2018-07-08T17:48:57.478Z,21.90
2018-07-08T17:51:26.017Z,21.90
2018-07-08T17:53:54.380Z,21.90
2018-07-08T17:56:23.024Z,21.80
2018-07-08T17:58:51.428Z,21.70
2018-07-08T18:01:19.832Z,21.50
2018-07-08T18:03:48.529Z,21.40
2018-07-08T18:06:16.919Z,21.30
2018-07-08T18:08:45.301Z,21.30
2018-07-08T18:11:13.705Z,21.30
2018-07-08T18:13:42.116Z,21.30
2018-07-08T18:16:10.619Z,21.30
2018-07-08T18:18:39.039Z,21.20
2018-07-08T18:21:07.468Z,21.10
2018-07-08T18:23:35.892Z,21.00
2018-07-08T18:26:04.397Z,21.00
2018-07-08T18:28:32.873Z,20.90
2018-07-08T18:31:01.239Z,20.90
2018-07-08T18:33:29.705Z,20.80
2018-07-08T18:35:58.043Z,20.70
2018-07-08T18:38:26.502Z,20.70
2018-07-08T18:40:54.876Z,20.60
2018-07-08T18:43:23.860Z,20.50
2018-07-08T18:45:52.499Z,20.40
2018-07-08T18:48:21.154Z,20.30
2018-07-08T18:50:49.504Z,20.30
2018-07-08T18:53:17.910Z,20.20
2018-07-08T18:55:46.589Z,20.10
2018-07-08T18:58:15.013Z,20.20
2018-07-08T19:00:43.402Z,20.10
2018-07-08T19:03:11.858Z,20.00
2018-07-08T19:05:41.147Z,20.00
2018-07-08T19:08:09.506Z,20.00
2018-07-08T19:10:38.053Z,19.90
2018-07-08T19:13:06.627Z,19.80
2018-07-08T19:15:35.034Z,19.70
2018-07-08T19:18:03.137Z,19.60
2018-07-08T19:20:31.483Z,19.50
2018-07-08T19:22:59.882Z,19.30
2018-07-08T19:25:28.464Z,19.10
2018-07-08T19:27:57.201Z,18.90
2018-07-08T19:30:25.674Z,18.80
2018-07-08T19:32:54.139Z,18.60
2018-07-08T19:35:22.569Z,18.50
2018-07-08T19:37:50.923Z,18.40
2018-07-08T19:40:19.349Z,18.30
2018-07-08T19:42:47.776Z,18.30
2018-07-08T19:45:16.159Z,18.20
2018-07-08T19:47:44.680Z,18.10
2018-07-08T19:50:13.061Z,18.00
2018-07-08T19:52:41.487Z,17.90
2018-07-08T19:55:09.905Z,17.80
2018-07-08T19:57:38.350Z,17.70
2018-07-08T20:00:07.312Z,17.70
2018-07-08T20:02:35.694Z,17.60
2018-07-08T20:05:04.142Z,17.50
2018-07-08T20:07:32.621Z,17.40
2018-07-08T20:10:01.086Z,17.40
2018-07-08T20:12:29.459Z,17.20
2018-07-08T20:14:57.870Z,17.10
2018-07-08T20:17:26.267Z,17.00
2018-07-08T20:19:54.703Z,16.90
2018-07-08T20:22:23.479Z,16.80
2018-07-08T20:24:52.293Z,16.60
2018-07-08T20:27:20.722Z,16.50
2018-07-08T20:29:49.098Z,16.50
2018-07-08T20:32:17.514Z,16.40
2018-07-08T20:34:45.886Z,16.30
2018-07-08T20:37:14.308Z,16.30
2018-07-08T20:39:42.679Z,16.30
2018-07-08T20:42:11.104Z,16.20
2018-07-08T20:44:39.506Z,16.10
2018-07-08T20:47:07.931Z,16.00
2018-07-08T20:49:36.420Z,15.90
2018-07-08T20:52:04.804Z,15.90
2018-07-08T20:54:33.259Z,15.80
2018-07-08T20:57:01.698Z,15.70
2018-07-08T20:59:30.131Z,15.70
2018-07-08T21:01:58.564Z,15.70
2018-07-08T21:04:27.009Z,15.70
2018-07-08T21:06:55.552Z,15.60
2018-07-08T21:09:23.961Z,15.50
2018-07-08T21:11:52.570Z,15.50
2018-07-08T21:14:21.034Z,15.30
2018-07-08T21:16:49.440Z,15.20
2018-07-08T21:19:17.795Z,15.10
2018-07-08T21:21:46.260Z,15.10
2018-07-08T21:24:14.703Z,15.00
2018-07-08T21:26:43.285Z,15.00
2018-07-08T21:29:11.678Z,15.00
2018-07-08T21:31:40.352Z,14.90
2018-07-08T21:34:08.741Z,14.90
2018-07-08T21:36:37.192Z,14.90
2018-07-08T21:39:07.248Z,14.80
2018-07-08T21:41:35.641Z,14.90
2018-07-08T21:44:04.927Z,14.90
2018-07-08T21:46:33.333Z,14.80
2018-07-08T21:49:01.676Z,14.70
2018-07-08T21:51:30.064Z,14.60
2018-07-08T21:56:26.589Z,14.50
2018-07-08T21:58:54.999Z,14.50
2018-07-08T22:01:23.762Z,14.40
2018-07-08T22:03:52.769Z,14.40
2018-07-08T22:06:21.689Z,14.40
2018-07-08T22:08:50.121Z,14.40
2018-07-08T22:11:18.494Z,14.40
2018-07-08T22:13:46.979Z,14.40
2018-07-08T22:16:15.377Z,14.40
2018-07-08T22:18:43.791Z,14.40
2018-07-08T22:21:12.238Z,14.30
2018-07-08T22:23:40.629Z,14.20
2018-07-08T22:26:09.049Z,14.20
2018-07-08T22:28:37.411Z,14.10
2018-07-08T22:31:05.849Z,14.10
2018-07-08T22:33:34.202Z,14.00
2018-07-08T22:36:02.623Z,13.90
2018-07-08T22:38:31.022Z,13.90
2018-07-08T22:40:59.415Z,13.80
2018-07-08T22:43:27.837Z,13.90
2018-07-08T22:45:56.372Z,13.80
2018-07-08T22:48:24.718Z,13.90
2018-07-08T22:50:53.259Z,13.80
2018-07-08T22:53:21.654Z,13.80
2018-07-08T22:55:50.017Z,13.80
2018-07-08T22:58:18.472Z,13.80
2018-07-08T23:00:58.435Z,13.80
2018-07-08T23:03:50.272Z,13.80
2018-07-08T23:06:19.496Z,13.80
2018-07-08T23:08:48.624Z,13.80
2018-07-08T23:11:17.056Z,13.80
2018-07-08T23:13:45.993Z,13.80
2018-07-08T23:16:14.360Z,13.80
2018-07-08T23:21:10.855Z,13.80
2018-07-08T23:23:39.193Z,13.80
2018-07-08T23:26:07.978Z,13.70
2018-07-08T23:28:37.169Z,13.70
2018-07-08T23:31:06.143Z,13.70
2018-07-08T23:33:34.566Z,13.60
2018-07-08T23:36:03.756Z,13.60
2018-07-08T23:38:32.466Z,13.60
2018-07-08T23:41:01.823Z,13.50
2018-07-08T23:45:58.997Z,13.50
2018-07-08T23:48:27.550Z,13.40
2018-07-08T23:50:56.060Z,13.40
2018-07-08T23:53:24.495Z,13.40
2018-07-08T23:55:53.228Z,13.30
2018-07-08T23:58:21.646Z,13.20
